Manassas, VA (20112)

11:15 PM EST on February 05, 2016 (GMT -0500)
FoxMill Weather Station | | Change Station
CLOSE
Current Station
Personal Weather Station
Location: Manassas, VA
Elevation: 292 ft
Nearby Weather Stations

Elev 292 ft 38.68 °N, 77.43 °W | Updated 0 second ago

Clear
Clear
27.5 °F
Feels Like 28 °F
N
0.0
Wind Variable Wind from ESE
Gusts 0.0 mph

Today
High -- | Low -- °F
--% Chance of Precip.
Yesterday
High -- | Low -- °F
Precip. -- in
Pressure 30.41 in
Visibility 10.0 miles
Clouds Clear
Windchill 28 °F
Dew Point 23 °F
Humidity 83%
Rainfall 0.02 in
Snow Depth Not available.
7:12 AM 5:35 PM
Waning Crescent, 7% visible
METAR KHEF 060355Z 00000KT 10SM CLR M04/M06 A3041 RMK AO1
Pressure 30.41 in
Visibility 10.0 miles
Clouds Clear
Windchill 28 °F
Dew Point 23 °F
Humidity 83%
Rainfall 0.02 in
Snow Depth Not available.
7:12 AM 5:35 PM
Waning Crescent, 7% visible
METAR KHEF 060355Z 00000KT 10SM CLR M04/M06 A3041 RMK AO1

10-Day Weather Forecast

Almanac

Astronomy

Feb. 05, 2016 Rise Set
Actual Time
Civil Twilight
Nautical Twilight
Astronomical Twilight
Moon
Length of Visible Light
Length of Day
Tomorrow will be .
, % of the Moon is Illuminated

Today's Extremes

State Highs State Lows

Community

WunderPhotos

Upload Photos

1,890,917 photos uploaded!

WunderBlog® & News

Nearby

Air Quality

  Air Quality AQ Index Pollutant
Not available.

Snow Depth

Station Depth Elevation

Earthquake Activity

City Distance Mag. Time & Date
Minimum magnitude displayed is 2.5.

Coastal Water Temperatures

Place Temperature

Stations

Nearby Weather Stations

Station Location Temp. Windchill Dew Point Humidity Wind Precip. Elev Updated Type
                   

Watches & Warnings

There are currently no watches in effect.